Time;durP1;ratioP1;P1;durP2;ratioP2;P2;SDS_P1;SDS_P2;PMS_P1;PMS_P2;Temp;Humidity;BMP_temperature;BMP_pressure;BME280_temperature;BME280_humidity;BME280_pressure;Samples;Min_cycle;Max_cycle;Signal;HPM_P1;HPM_P2
2021/03/27 00:01:49;;;;;;;8.00;3.25;;;;;;;;;;4942151;29;20027;-84
2021/03/27 00:04:15;;;;;;;4.68;4.07;;;;;;;;;;4943061;29;20564;-84
2021/03/27 00:07:00;;;;;;;6.47;2.65;;;13.80;83.20;;;;;;4949158;28;20146;-84
2021/03/27 00:09:26;;;;;;;7.40;3.55;;;;;;;;;;4947766;28;20035;-83
2021/03/27 00:11:52;;;;;;;8.48;3.00;;;;;;;;;;4935383;28;20035;-84
2021/03/27 00:14:31;;;;;;;6.97;4.05;;;13.90;62.30;;;;;;4941026;29;20103;-83
2021/03/27 00:17:05;;;;;;;8.38;4.22;;;13.90;62.40;;;;;;4945752;29;20023;-83
2021/03/27 00:19:47;;;;;;;14.13;5.05;;;13.90;62.20;;;;;;4943325;29;20030;-85
2021/03/27 00:22:41;;;;;;;11.75;4.53;;;13.80;67.60;;;;;;4942232;29;20055;-83
2021/03/27 00:25:27;;;;;;;8.25;4.40;;;13.90;62.40;;;;;;4947929;29;20035;-84
2021/03/27 00:27:53;;;;;;;8.77;4.65;;;;;;;;;;4950769;29;20051;-83
2021/03/27 00:30:37;;;;;;;8.00;4.47;;;13.80;62.80;;;;;;4940967;28;20032;-82
2021/03/27 00:33:03;;;;;;;9.80;4.78;;;;;;;;;;4952865;28;20090;-82
2021/03/27 00:35:35;;;;;;;5.75;3.78;;;13.70;62.70;;;;;;4953972;29;20031;-83
2021/03/27 00:38:07;;;;;;;6.25;4.00;;;13.60;62.70;;;;;;4949773;29;20508;-83
2021/03/27 00:40:35;;;;;;;6.45;3.38;;;;;;;;;;4944279;29;20027;-83
2021/03/27 00:43:09;;;;;;;11.40;4.85;;;13.60;62.90;;;;;;4941829;29;20035;-83
2021/03/27 00:45:47;;;;;;;8.73;4.40;;;13.60;63.40;;;;;;4940952;29;20765;-83
2021/03/27 00:48:18;;;;;;;8.27;4.40;;;;;;;;;;4952625;29;20031;-83
2021/03/27 00:50:56;;;;;;;7.05;4.07;;;13.60;68.80;;;;;;4938069;29;20488;-83
2021/03/27 00:53:32;;;;;;;6.88;3.15;;;;;;;;;;4940008;29;20036;-85
2021/03/27 00:56:08;;;;;;;5.95;4.00;;;13.50;62.80;;;;;;4944741;29;20388;-83
2021/03/27 00:58:41;;;;;;;8.23;4.80;;;13.60;63.00;;;;;;4943008;29;20027;-84
2021/03/27 01:01:10;;;;;;;5.28;3.28;;;13.70;62.00;;;;;;4945324;29;20039;-83
2021/03/27 01:03:45;;;;;;;8.32;3.67;;;13.70;62.00;;;;;;4943606;28;20043;-83
2021/03/27 01:06:17;;;;;;;7.13;3.28;;;13.70;60.40;;;;;;4942954;29;20118;-83
2021/03/27 01:08:48;;;;;;;9.93;5.13;;;13.70;60.10;;;;;;4937832;29;20031;-83
2021/03/27 01:11:31;;;;;;;6.28;2.95;;;13.60;60.20;;;;;;4940394;29;20039;-85
2021/03/27 01:13:58;;;;;;;6.40;3.75;;;;;;;;;;4949769;28;20032;-84
2021/03/27 01:16:37;;;;;;;6.13;2.90;;;13.70;58.90;;;;;;4947558;29;20497;-82
2021/03/27 01:19:11;;;;;;;5.15;3.15;;;13.80;58.40;;;;;;4942613;29;20038;-84
2021/03/27 01:21:38;;;;;;;8.63;3.42;;;13.80;58.50;;;;;;4955273;28;20058;-84
2021/03/27 01:24:06;;;;;;;;;;;13.60;59.00;;;;;;4951413;28;20440;-83
2021/03/27 01:26:59;;;;;;;7.50;3.33;;;;;;;;;;4945954;29;19911;-84
2021/03/27 01:29:33;;;;;;;4.47;2.40;;;13.50;68.30;;;;;;4938723;29;20036;-84
2021/03/27 01:32:14;;;;;;;4.72;2.90;;;13.60;59.30;;;;;;4944371;29;20122;-84
2021/03/27 01:34:49;;;;;;;6.38;2.85;;;13.60;58.30;;;;;;4949012;28;20055;-83
2021/03/27 01:37:18;;;;;;;3.95;2.13;;;;;;;;;;4945790;28;20031;-84
2021/03/27 01:39:48;;;;;;;5.53;2.53;;;;;;;;;;4948377;28;20401;-84
2021/03/27 01:42:44;;;;;;;3.25;2.25;;;13.50;57.30;;;;;;4937269;29;20024;-84
2021/03/27 01:45:38;;;;;;;3.40;2.08;;;13.40;56.00;;;;;;4937383;29;20036;-84
2021/03/27 01:48:42;;;;;;;3.10;2.13;;;13.40;56.10;;;;;;4936830;29;20027;-83
2021/03/27 01:51:45;;;;;;;3.65;2.05;;;13.40;56.40;;;;;;4936281;29;20167;-83
2021/03/27 01:54:12;;;;;;;2.83;1.92;;;;;;;;;;4937219;29;20070;-83
2021/03/27 01:56:45;;;;;;;7.22;2.95;;;13.40;55.30;;;;;;4941569;29;20031;-83
2021/03/27 01:59:42;;;;;;;3.97;2.13;;;13.40;54.90;;;;;;4940173;29;20047;-84
2021/03/27 02:02:10;;;;;;;3.17;1.73;;;;;;;;;;4949216;29;20042;-83
2021/03/27 02:04:45;;;;;;;4.10;2.08;;;13.10;52.50;;;;;;4942749;29;20031;-83
2021/03/27 02:07:35;;;;;;;0.95;0.77;;;12.60;72.80;;;;;;4942944;29;20090;-83
2021/03/27 02:10:37;;;;;;;3.17;1.00;;;12.10;51.60;;;;;;4946416;28;20127;-83
2021/03/27 02:13:21;;;;;;;0.50;0.50;;;11.70;50.70;;;;;;4940877;29;20043;-83
2021/03/27 02:16:11;;;;;;;3.30;0.50;;;11.30;50.60;;;;;;4940889;29;20115;-83
2021/03/27 02:18:52;;;;;;;4.80;0.55;;;11.30;51.20;;;;;;4953706;28;20063;-83
2021/03/27 02:21:43;;;;;;;1.33;0.73;;;11.30;51.20;;;;;;4950201;28;20042;-84
2021/03/27 02:24:27;;;;;;;1.60;0.63;;;10.80;51.50;;;;;;4949117;29;20023;-83
2021/03/27 02:26:53;;;;;;;1.40;0.60;;;;;;;;;;4938155;29;20031;-83
2021/03/27 02:29:40;;;;;;;1.65;1.10;;;10.70;52.70;;;;;;4936652;28;20105;-84
2021/03/27 02:32:15;;;;;;;0.75;0.70;;;10.60;51.90;;;;;;4938147;29;20047;-83
2021/03/27 02:35:21;;;;;;;1.23;0.68;;;10.80;73.10;;;;;;4941873;29;20028;-83
2021/03/27 02:37:58;;;;;;;2.17;0.97;;;10.90;57.90;;;;;;4950038;28;20094;-84
2021/03/27 02:40:41;;;;;;;1.58;1.42;;;11.10;50.10;;;;;;4933077;29;20067;-83
2021/03/27 02:43:21;;;;;;;0.65;0.60;;;;;;;;;;4944481;29;20543;-83
2021/03/27 02:45:59;;;;;;;1.65;0.85;;;11.20;48.30;;;;;;4931348;29;20031;-83
2021/03/27 02:48:48;;;;;;;0.52;0.40;;;11.00;65.30;;;;;;4949144;29;20093;-84
2021/03/27 02:51:30;;;;;;;4.97;1.25;;;11.20;48.50;;;;;;4932729;29;20154;-83
2021/03/27 02:54:29;;;;;;;2.90;0.60;;;11.40;47.90;;;;;;4948450;29;20039;-84
2021/03/27 02:57:12;;;;;;;7.80;0.73;;;11.40;47.40;;;;;;4945773;28;20046;-84
2021/03/27 02:59:51;;;;;;;4.40;1.15;;;11.40;56.90;;;;;;4948931;29;20551;-84
2021/03/27 03:02:21;;;;;;;1.20;0.52;;;11.40;47.00;;;;;;4949407;29;20079;-83
2021/03/27 03:05:24;;;;;;;3.05;0.93;;;11.10;47.90;;;;;;4949813;29;20031;-84
2021/03/27 03:08:19;;;;;;;4.78;0.63;;;11.20;69.20;;;;;;4949630;29;20059;-84
2021/03/27 03:10:56;;;;;;;2.25;1.10;;;11.10;69.00;;;;;;4933508;29;20035;-83
2021/03/27 03:13:40;;;;;;;4.80;0.88;;;11.00;49.40;;;;;;4951223;28;20110;-83
2021/03/27 03:16:06;;;;;;;6.82;1.73;;;;;;;;;;4941322;29;20102;-84
2021/03/27 03:18:58;;;;;;;6.35;1.25;;;11.00;53.00;;;;;;4940236;29;20611;-84
2021/03/27 03:21:38;;;;;;;5.68;0.90;;;11.20;47.90;;;;;;4937178;29;20106;-84
2021/03/27 03:24:10;;;;;;;0.82;0.73;;;11.40;58.40;;;;;;4940584;28;23170;-83
2021/03/27 03:27:13;;;;;;;3.72;0.85;;;11.30;46.30;;;;;;4935202;28;20514;-83
2021/03/27 03:30:04;;;;;;;1.65;0.60;;;11.30;46.60;;;;;;4940380;29;20041;-85
2021/03/27 03:32:52;;;;;;;0.50;0.50;;;11.30;50.50;;;;;;4948666;29;20047;-84
2021/03/27 03:35:35;;;;;;;;;;;11.30;47.50;;;;;;4947372;29;20118;-84
2021/03/27 03:38:39;;;;;;;2.97;0.93;;;11.40;47.40;;;;;;4942576;29;19914;-84
2021/03/27 03:41:36;;;;;;;0.75;0.50;;;11.30;47.30;;;;;;4942247;29;20035;-84
2021/03/27 03:44:36;;;;;;;2.55;1.25;;;11.20;47.00;;;;;;4946761;29;20031;-83
2021/03/27 03:47:07;;;;;;;1.35;0.90;;;;;;;;;;4937908;29;20105;-84
2021/03/27 03:49:58;;;;;;;1.95;0.82;;;11.60;58.60;;;;;;4943326;29;20023;-83
2021/03/27 03:52:49;;;;;;;4.03;2.15;;;11.30;57.00;;;;;;4961282;28;20645;-83
2021/03/27 03:55:36;;;;;;;5.82;1.00;;;11.30;47.80;;;;;;4944897;28;20023;-84
2021/03/27 03:58:30;;;;;;;5.15;0.93;;;11.30;46.40;;;;;;4949653;28;20041;-85
2021/03/27 04:01:20;;;;;;;0.73;0.73;;;11.40;46.90;;;;;;4939962;29;20035;-84
2021/03/27 04:04:00;;;;;;;2.05;0.60;;;11.30;47.90;;;;;;4936164;29;20035;-83
2021/03/27 04:06:29;;;;;;;1.70;0.63;;;11.10;46.30;;;;;;4946368;29;20048;-83
2021/03/27 04:09:23;;;;;;;0.50;0.50;;;11.10;48.00;;;;;;4955600;28;20035;-84
2021/03/27 04:12:19;;;;;;;6.68;1.48;;;10.90;48.70;;;;;;4943202;29;20111;-82
2021/03/27 04:14:48;;;;;;;1.85;1.38;;;;;;;;;;4953730;28;20114;-81
2021/03/27 04:17:30;;;;;;;0.40;0.40;;;11.10;50.50;;;;;;4941322;29;20102;-83
2021/03/27 04:20:10;;;;;;;1.73;0.52;;;11.30;47.50;;;;;;4939806;29;20034;-83
2021/03/27 04:22:44;;;;;;;5.07;0.80;;;;;;;;;;4946097;28;20031;-84
2021/03/27 04:25:36;;;;;;;2.25;0.88;;;11.30;49.10;;;;;;4936103;29;20409;-84
2021/03/27 04:28:02;;;;;;;1.20;0.68;;;;;;;;;;4944350;29;20039;-82
2021/03/27 04:31:01;;;;;;;5.93;0.73;;;11.40;47.10;;;;;;4938871;29;20085;-84
2021/03/27 04:33:27;;;;;;;8.85;1.45;;;;;;;;;;4936181;29;20039;-83
2021/03/27 04:36:08;;;;;;;4.95;1.75;;;11.20;46.50;;;;;;4939910;28;20150;-84
2021/03/27 04:38:42;;;;;;;1.02;0.43;;;11.00;48.30;;;;;;4943910;29;20031;-83
2021/03/27 04:41:08;;;;;;;2.20;0.60;;;;;;;;;;4936941;28;20059;-83
2021/03/27 04:43:34;;;;;;;0.65;0.60;;;;;;;;;;4939129;29;20031;-83
2021/03/27 04:46:03;;;;;;;1.05;0.68;;;;;;;;;;4939749;29;20467;-84
2021/03/27 04:48:44;;;;;;;2.40;0.93;;;11.20;49.30;;;;;;4939128;29;20035;-84
2021/03/27 04:51:20;;;;;;;2.47;1.15;;;;;;;;;;4953335;28;20023;-83
2021/03/27 04:53:55;;;;;;;0.60;0.57;;;11.20;47.90;;;;;;4935215;29;20098;-83
2021/03/27 04:56:42;;;;;;;3.47;0.90;;;11.30;46.00;;;;;;4934570;28;20034;-83
2021/03/27 04:59:28;;;;;;;7.82;0.85;;;11.40;46.10;;;;;;4946708;28;20035;-84
2021/03/27 05:02:12;;;;;;;0.90;0.55;;;11.00;57.50;;;;;;4940443;29;20051;-83
2021/03/27 05:04:41;;;;;;;5.25;1.00;;;;;;;;;;4952520;29;20122;-84
2021/03/27 05:07:13;;;;;;;1.27;0.70;;;11.10;69.30;;;;;;4950917;28;20043;-84
2021/03/27 05:10:27;;;;;;;3.15;0.95;;;10.90;46.30;;;;;;4944115;29;20043;-83
2021/03/27 05:13:12;;;;;;;1.30;0.90;;;10.90;47.40;;;;;;4937267;29;20058;-84
2021/03/27 05:16:03;;;;;;;2.40;0.70;;;11.00;45.20;;;;;;4943103;29;20035;-83
2021/03/27 05:18:48;;;;;;;3.25;1.00;;;;;;;;;;4942652;29;20035;-84
2021/03/27 05:21:28;;;;;;;1.67;0.93;;;10.90;46.00;;;;;;4938300;29;20047;-83
2021/03/27 05:24:15;;;;;;;1.33;0.63;;;10.60;48.10;;;;;;4947175;29;20382;-82
2021/03/27 05:26:50;;;;;;;1.00;0.93;;;;;;;;;;4941564;29;20023;-85
2021/03/27 05:29:32;;;;;;;0.95;0.60;;;10.40;47.90;;;;;;4942174;28;20557;-84
2021/03/27 05:32:26;;;;;;;9.15;1.88;;;10.10;46.80;;;;;;4944864;28;20066;-83
2021/03/27 05:34:53;;;;;;;3.08;0.52;;;10.10;45.20;;;;;;4946144;29;20389;-84
2021/03/27 05:37:19;;;;;;;;;;;10.10;45.70;;;;;;4942531;29;20106;-84
2021/03/27 05:39:48;;;;;;;1.77;0.70;;;;;;;;;;4941929;29;20045;-83
2021/03/27 05:42:50;;;;;;;13.10;1.10;;;9.50;47.90;;;;;;4950567;29;20059;-83
2021/03/27 05:45:51;;;;;;;1.33;0.80;;;9.70;48.30;;;;;;4933005;29;20036;-83
2021/03/27 05:48:48;;;;;;;2.53;0.98;;;9.80;47.10;;;;;;4939801;29;20523;-84
2021/03/27 05:51:14;;;;;;;0.65;0.65;;;;;;;;;;4938696;29;20110;-83
2021/03/27 05:53:51;;;;;;;1.52;0.75;;;10.00;68.60;;;;;;4966429;28;20488;-84
2021/03/27 05:56:22;;;;;;;;;;;9.60;47.80;;;;;;4935379;28;20540;-84
2021/03/27 05:59:07;;;;;;;0.60;0.60;;;;;;;;;;4950840;29;20323;-83
2021/03/27 06:01:44;;;;;;;3.30;1.10;;;9.20;48.40;;;;;;4934215;29;20031;-82
2021/03/27 06:04:10;;;;;;;;;;;9.30;48.90;;;;;;4947743;29;20046;-83
2021/03/27 06:06:36;;;;;;;1.73;1.48;;;;;;;;;;4942152;29;19918;-83
2021/03/27 06:09:27;;;;;;;0.82;0.82;;;9.70;47.50;;;;;;4939240;29;20035;-82
2021/03/27 06:11:59;;;;;;;3.83;1.08;;;;;;;;;;4929912;29;20034;-83
2021/03/27 06:14:53;;;;;;;9.68;2.97;;;9.90;67.60;;;;;;4955110;28;20126;-83
2021/03/27 06:17:27;;;;;;;0.80;0.73;;;9.70;50.10;;;;;;4931900;29;20024;-83
2021/03/27 06:20:18;;;;;;;5.97;0.85;;;9.40;46.40;;;;;;4950792;29;20035;-83
2021/03/27 06:22:59;;;;;;;1.10;0.85;;;9.60;50.90;;;;;;4944884;29;20082;-83
2021/03/27 06:25:38;;;;;;;3.22;1.00;;;10.00;64.80;;;;;;4946394;29;20034;-83
2021/03/27 06:28:04;;;;;;;0.50;0.50;;;;;;;;;;4941857;29;20405;-82
2021/03/27 06:30:37;;;;;;;4.88;1.35;;;11.40;40.30;;;;;;4947160;28;20028;-83
2021/03/27 06:33:43;;;;;;;1.38;0.75;;;12.00;38.70;;;;;;4948434;28;20412;-83
2021/03/27 06:36:40;;;;;;;2.83;1.20;;;12.60;39.10;;;;;;4948212;29;20034;-84
2021/03/27 06:39:18;;;;;;;1.27;0.50;;;12.90;58.70;;;;;;4948402;29;20066;-83
2021/03/27 06:41:50;;;;;;;;;;;13.00;38.50;;;;;;4945817;29;20030;-84
2021/03/27 06:44:33;;;;;;;2.67;1.35;;;13.30;59.30;;;;;;4950794;29;20423;-84
2021/03/27 06:47:42;;;;;;;1.50;0.80;;;13.30;37.50;;;;;;4939182;29;20130;-84
2021/03/27 06:50:08;;;;;;;2.75;0.95;;;;;;;;;;4943065;29;20148;-84
2021/03/27 06:53:05;;;;;;;1.05;0.95;;;13.50;35.00;;;;;;4949886;29;20047;-84
2021/03/27 06:55:40;;;;;;;5.13;1.08;;;13.70;54.80;;;;;;4935818;29;20513;-84
2021/03/27 06:58:06;;;;;;;1.00;0.65;;;;;;;;;;4941084;29;20039;-84
2021/03/27 07:00:48;;;;;;;6.53;1.10;;;;;;;;;;4942495;29;20024;-85
2021/03/27 07:03:47;;;;;;;2.47;0.90;;;14.20;42.40;;;;;;4949925;28;20496;-84
2021/03/27 07:06:32;;;;;;;3.85;0.63;;;14.60;41.60;;;;;;4935464;29;20051;-84
2021/03/27 07:09:22;;;;;;;3.03;0.70;;;14.90;32.90;;;;;;4935069;29;20042;-84
2021/03/27 07:12:15;;;;;;;2.03;0.98;;;15.30;31.40;;;;;;4935646;29;20055;-84
2021/03/27 07:14:41;;;;;;;4.78;0.68;;;;;;;;;;4935123;28;20086;-84
2021/03/27 07:17:19;;;;;;;3.55;1.00;;;15.90;49.90;;;;;;4938930;28;20032;-84
2021/03/27 07:19:45;;;;;;;0.80;0.70;;;;;;;;;;4943565;29;20059;-84
2021/03/27 07:22:32;;;;;;;3.13;1.13;;;16.80;29.00;;;;;;4940662;28;20497;-83
2021/03/27 07:25:19;;;;;;;4.80;0.70;;;17.60;29.10;;;;;;4940196;29;20047;-83
2021/03/27 07:27:47;;;;;;;7.88;1.05;;;18.00;29.30;;;;;;4939904;29;20027;-83
2021/03/27 07:30:48;;;;;;;1.38;0.75;;;18.30;27.80;;;;;;4940829;28;20039;-83
2021/03/27 07:33:47;;;;;;;9.32;1.33;;;17.90;31.00;;;;;;4962083;28;20035;-84
2021/03/27 07:36:54;;;;;;;3.08;0.77;;;18.60;26.70;;;;;;4949662;29;20052;-84
2021/03/27 07:39:51;;;;;;;2.00;0.90;;;18.80;26.60;;;;;;4904004;29;20757;-84
2021/03/27 07:42:32;;;;;;;2.03;0.52;;;;;;;;;;4917904;29;20020;-82
2021/03/27 07:45:01;;;;;;;2.10;0.52;;;;;;;;;;4935611;29;20039;-82
2021/03/27 07:47:27;;;;;;;0.80;0.60;;;;;;;;;;4939498;29;20024;-82
2021/03/27 07:49:53;;;;;;;4.13;0.63;;;;;;;;;;4922319;29;20308;-82
2021/03/27 07:52:48;;;;;;;3.33;0.70;;;21.00;41.70;;;;;;4925108;29;20094;-81
2021/03/27 07:55:14;;;;;;;3.53;0.65;;;;;;;;;;4923008;29;20108;-82
2021/03/27 07:57:51;;;;;;;1.02;0.40;;;19.60;37.80;;;;;;4908632;29;20328;-82
2021/03/27 08:00:25;;;;;;;1.00;0.70;;;19.60;44.50;;;;;;4934052;29;20520;-81
2021/03/27 08:03:28;;;;;;;1.92;0.77;;;20.20;42.60;;;;;;4914252;29;20074;-82
2021/03/27 08:06:02;;;;;;;4.15;0.50;;;20.50;24.00;;;;;;4914436;29;20424;-82
2021/03/27 08:09:05;;;;;;;2.20;1.02;;;20.00;25.10;;;;;;4934473;29;20036;-82
2021/03/27 08:11:54;;;;;;;1.20;0.63;;;20.50;24.60;;;;;;4926774;29;20078;-82
2021/03/27 08:14:40;;;;;;;3.72;1.00;;;20.50;23.90;;;;;;4927018;29;20063;-82
2021/03/27 08:17:06;;;;;;;1.95;0.45;;;;;;;;;;4942782;29;20399;-82
2021/03/27 08:19:41;;;;;;;6.93;1.60;;;20.50;24.20;;;;;;4942397;29;20046;-82
2021/03/27 08:22:31;;;;;;;1.65;0.50;;;20.30;24.90;;;;;;4946403;28;20027;-84
2021/03/27 08:25:16;;;;;;;5.28;0.55;;;19.70;23.80;;;;;;4943540;29;20086;-84
2021/03/27 08:28:12;;;;;;;2.55;1.17;;;19.20;23.70;;;;;;4955601;28;20064;-83
2021/03/27 08:31:09;;;;;;;6.83;1.03;;;19.90;25.30;;;;;;4958233;29;20087;-79
2021/03/27 08:34:00;;;;;;;1.95;0.57;;;20.50;31.60;;;;;;4968349;28;20051;-80
2021/03/27 08:36:49;;;;;;;2.25;0.77;;;19.70;39.20;;;;;;4951491;29;20031;-81
2021/03/27 08:39:52;;;;;;;2.58;1.17;;;18.90;24.70;;;;;;4947465;28;20027;-82
2021/03/27 08:42:38;;;;;;;6.43;1.13;;;;;;;;;;4942635;28;20035;-81
2021/03/27 08:45:42;;;;;;;2.60;1.00;;;17.00;27.00;;;;;;4940153;28;20039;-81
2021/03/27 08:48:48;;;;;;;1.58;1.00;;;17.60;26.80;;;;;;4949133;29;20170;-83
2021/03/27 08:51:26;;;;;;;0.28;0.28;;;18.60;43.50;;;;;;4930421;29;20417;-81
2021/03/27 08:54:07;;;;;;;;;;;18.60;23.70;;;;;;4917797;29;20036;-81
2021/03/27 08:56:33;;;;;;;5.72;0.75;;;;;;;;;;4928419;29;19914;-82
2021/03/27 08:59:35;;;;;;;2.90;0.90;;;19.60;31.20;;;;;;4929947;29;20062;-83
2021/03/27 09:02:01;;;;;;;1.00;0.55;;;;;;;;;;4920321;29;20051;-82
2021/03/27 09:04:44;;;;;;;4.55;0.80;;;;;;;;;;4929324;29;20038;-82
2021/03/27 09:07:10;;;;;;;3.42;0.47;;;;;;;;;;4926695;29;20056;-83
2021/03/27 09:09:41;;;;;;;4.05;0.50;;;20.80;22.70;;;;;;4930273;29;20179;-82
2021/03/27 09:12:43;;;;;;;4.63;0.60;;;20.80;21.60;;;;;;4928777;29;20051;-82
2021/03/27 09:15:18;;;;;;;2.47;0.38;;;19.90;40.70;;;;;;4926030;29;20162;-83
2021/03/27 09:18:20;;;;;;;4.85;0.80;;;20.10;23.50;;;;;;4929552;29;20034;-83
2021/03/27 09:21:04;;;;;;;0.88;0.60;;;20.80;22.80;;;;;;4928170;29;20075;-83
2021/03/27 09:23:39;;;;;;;3.75;0.60;;;21.40;22.60;;;;;;4919815;29;20059;-82
2021/03/27 09:26:37;;;;;;;0.40;0.30;;;21.70;21.70;;;;;;4926799;29;20068;-83
2021/03/27 09:29:03;;;;;;;3.67;0.68;;;;;;;;;;4945369;29;20067;-82
2021/03/27 09:32:11;;;;;;;1.02;0.50;;;22.00;22.60;;;;;;4944215;28;20386;-82
2021/03/27 09:34:54;;;;;;;2.60;0.50;;;;;;;;;;4946227;28;20118;-84
2021/03/27 09:37:43;;;;;;;0.77;0.45;;;21.90;23.30;;;;;;4945465;29;20054;-83
2021/03/27 09:40:18;;;;;;;1.88;0.28;;;;;;;;;;4948307;28;20035;-83
2021/03/27 09:43:05;;;;;;;2.47;0.75;;;22.40;19.90;;;;;;4948895;29;20027;-82
2021/03/27 09:45:31;;;;;;;0.82;0.55;;;;;;;;;;4940925;29;20056;-83
2021/03/27 09:48:30;;;;;;;6.05;0.60;;;22.40;35.90;;;;;;4946060;28;20402;-84
2021/03/27 09:51:20;;;;;;;0.55;0.38;;;22.70;19.10;;;;;;4937669;29;20035;-83
2021/03/27 09:54:01;;;;;;;0.55;0.30;;;22.40;20.10;;;;;;4946975;28;20054;-82
2021/03/27 09:56:33;;;;;;;3.65;0.35;;;;;;;;;;4954974;28;20034;-82
2021/03/27 09:59:42;;;;;;;6.45;0.50;;;22.80;35.30;;;;;;4948785;29;20034;-84
2021/03/27 10:02:35;;;;;;;6.07;1.38;;;22.10;27.10;;;;;;4947193;28;20045;-84
2021/03/27 10:05:23;;;;;;;3.50;0.45;;;18.40;17.10;;;;;;4938887;29;20497;-84
2021/03/27 10:08:12;;;;;;;0.25;0.25;;;22.70;32.80;;;;;;4942258;29;20070;-83
2021/03/27 10:10:38;;;;;;;1.42;0.68;;;;;;;;;;4939235;29;20054;-83
2021/03/27 10:13:04;;;;;;;4.85;0.47;;;;;;;;;;4943927;29;20412;-84
2021/03/27 10:15:42;;;;;;;4.43;0.50;;;23.10;18.00;;;;;;4941210;29;20428;-85
2021/03/27 10:18:41;;;;;;;2.17;0.40;;;22.90;19.30;;;;;;4941387;28;20031;-84
2021/03/27 10:21:37;;;;;;;4.30;0.47;;;23.40;17.30;;;;;;4934648;29;20512;-85
2021/03/27 10:24:17;;;;;;;1.73;0.80;;;23.60;18.00;;;;;;4938421;29;20389;-83
2021/03/27 10:26:44;;;;;;;0.20;0.20;;;23.70;18.50;;;;;;4940910;29;20062;-84
2021/03/27 10:29:10;;;;;;;0.98;0.17;;;;;;;;;;4942693;29;20102;-83
2021/03/27 10:31:46;;;;;;;7.57;0.65;;;24.40;17.90;;;;;;4938545;28;20401;-83
2021/03/27 10:34:15;;;;;;;4.18;0.20;;;;;;;;;;4939405;29;20442;-84
2021/03/27 10:36:47;;;;;;;1.52;0.55;;;;;;;;;;4936718;28;20119;-84
2021/03/27 10:39:50;;;;;;;2.67;0.30;;;24.00;17.60;;;;;;4939708;29;20042;-85
2021/03/27 10:43:01;;;;;;;1.20;0.73;;;24.10;16.90;;;;;;4947052;29;20043;-85
2021/03/27 10:45:50;;;;;;;7.47;0.55;;;23.70;33.60;;;;;;4934502;29;20126;-84
2021/03/27 10:48:40;;;;;;;2.78;0.57;;;23.10;19.10;;;;;;4946989;29;20087;-84
2021/03/27 10:51:32;;;;;;;2.28;0.50;;;22.80;19.40;;;;;;4946862;29;20539;-85
2021/03/27 10:54:29;;;;;;;5.15;0.55;;;22.70;19.40;;;;;;4938979;29;20086;-83
2021/03/27 10:57:08;;;;;;;1.63;0.40;;;22.40;33.30;;;;;;4945147;28;20027;-85
2021/03/27 10:59:59;;;;;;;2.58;0.98;;;22.10;19.10;;;;;;4944820;29;20110;-83
2021/03/27 11:02:25;;;;;;;6.13;0.60;;;;;;;;;;4905299;29;20078;-84
2021/03/27 11:05:32;;;;;;;0.75;0.40;;;21.20;20.70;;;;;;4907273;29;20570;-83
2021/03/27 11:08:28;;;;;;;1.05;0.47;;;21.00;20.60;;;;;;4909562;29;20071;-84
2021/03/27 11:11:14;;;;;;;4.60;0.52;;;20.50;20.60;;;;;;4904375;29;20451;-83
2021/03/27 11:13:49;;;;;;;1.83;0.60;;;19.90;21.10;;;;;;4887015;29;20061;-83
2021/03/27 11:16:47;;;;;;;4.43;0.50;;;19.40;20.10;;;;;;4903193;29;20086;-83
2021/03/27 11:19:49;;;;;;;0.40;0.40;;;21.50;21.30;;;;;;4904014;29;20035;-85
2021/03/27 11:22:56;;;;;;;1.95;0.40;;;19.10;19.40;;;;;;4905377;29;20032;-83
2021/03/27 11:25:41;;;;;;;1.15;0.57;;;19.40;20.90;;;;;;4906085;29;21112;-85
2021/03/27 11:28:16;;;;;;;2.10;0.63;;;;;;;;;;4908378;29;20039;-82
2021/03/27 11:30:42;;;;;;;4.10;0.45;;;;;;;;;;4908043;29;20040;-82
2021/03/27 11:33:40;;;;;;;2.53;0.90;;;19.50;21.70;;;;;;4907582;29;20044;-83
2021/03/27 11:36:09;;;;;;;1.58;0.60;;;19.40;23.10;;;;;;4904470;29;20068;-83
2021/03/27 11:38:53;;;;;;;2.65;0.63;;;19.40;22.60;;;;;;4912830;29;20115;-83
2021/03/27 11:41:22;;;;;;;0.90;0.32;;;;;;;;;;4943195;29;20045;-83
2021/03/27 11:44:18;;;;;;;0.70;0.50;;;19.30;20.30;;;;;;4956720;28;20016;-84
2021/03/27 11:46:52;;;;;;;1.70;0.53;;;19.10;19.80;;;;;;4936693;29;20098;-83
2021/03/27 11:49:40;;;;;;;0.77;0.40;;;19.00;22.60;;;;;;4938117;28;20039;-83
2021/03/27 11:52:40;;;;;;;3.95;0.50;;;19.40;22.70;;;;;;4941432;29;20050;-84
2021/03/27 11:55:23;;;;;;;0.80;0.50;;;19.70;21.20;;;;;;4941015;29;20468;-84
2021/03/27 11:58:01;;;;;;;1.05;0.52;;;;;;;;;;4946497;28;20111;-84
2021/03/27 12:01:00;;;;;;;0.45;0.40;;;19.40;19.20;;;;;;4944768;29;20035;-84
2021/03/27 12:04:13;;;;;;;2.42;0.60;;;19.40;35.10;;;;;;4936856;28;20687;-84
2021/03/27 12:07:02;;;;;;;1.23;0.50;;;19.00;20.80;;;;;;4927415;29;20067;-85
2021/03/27 12:09:46;;;;;;;1.02;0.40;;;19.00;21.70;;;;;;4921172;29;20040;-83
2021/03/27 12:12:35;;;;;;;2.25;0.55;;;18.90;21.60;;;;;;4921298;29;20044;-84
2021/03/27 12:15:28;;;;;;;1.45;0.43;;;18.60;38.60;;;;;;4917131;29;20044;-83
2021/03/27 12:18:18;;;;;;;1.30;0.75;;;18.60;21.70;;;;;;4916628;29;20594;-82
2021/03/27 12:20:52;;;;;;;0.50;0.32;;;18.30;20.10;;;;;;4920553;29;20505;-83
2021/03/27 12:23:24;;;;;;;2.30;0.60;;;;;;;;;;4923853;29;20039;-83
2021/03/27 12:26:03;;;;;;;2.53;1.05;;;18.60;23.10;;;;;;4911445;29;20075;-82
2021/03/27 12:28:51;;;;;;;0.77;0.75;;;18.60;22.90;;;;;;4925266;29;20088;-82
2021/03/27 12:31:24;;;;;;;0.95;0.30;;;18.50;20.50;;;;;;4928408;29;20188;-83
2021/03/27 12:34:19;;;;;;;1.55;1.00;;;18.50;21.20;;;;;;4930454;29;20086;-83
2021/03/27 12:36:59;;;;;;;2.47;0.80;;;18.40;21.70;;;;;;4907100;29;20034;-84
2021/03/27 12:39:35;;;;;;;2.53;0.38;;;18.40;23.70;;;;;;4920423;29;20130;-85
2021/03/27 12:42:42;;;;;;;1.40;0.77;;;18.50;21.40;;;;;;4947087;28;20507;-82
2021/03/27 12:45:29;;;;;;;1.35;0.60;;;;;;;;;;4936872;29;20039;-85
2021/03/27 12:48:20;;;;;;;0.43;0.32;;;17.70;39.10;;;;;;4939603;29;20046;-81
2021/03/27 12:51:28;;;;;;;3.08;0.47;;;18.20;20.30;;;;;;4939488;29;20043;-84
2021/03/27 12:54:13;;;;;;;0.38;0.30;;;;;;;;;;4934319;28;20048;-83
2021/03/27 12:57:00;;;;;;;0.20;0.20;;;18.30;36.00;;;;;;4936732;28;20396;-83
2021/03/27 12:59:25;;;;;;;;;;;18.40;20.90;;;;;;4947453;29;20038;-84
2021/03/27 13:02:14;;;;;;;1.23;0.40;;;18.20;22.10;;;;;;4942784;28;19914;-82
2021/03/27 13:05:06;;;;;;;2.63;0.85;;;18.20;19.40;;;;;;4947292;28;20035;-82
2021/03/27 13:08:09;;;;;;;0.20;0.20;;;18.00;21.80;;;;;;4945085;29;20039;-82
2021/03/27 13:10:49;;;;;;;0.93;0.40;;;17.80;36.40;;;;;;4945854;28;20015;-82
2021/03/27 13:13:23;;;;;;;2.38;0.85;;;17.90;21.30;;;;;;4946099;29;20489;-83
2021/03/27 13:16:22;;;;;;;0.30;0.30;;;17.90;21.90;;;;;;4947559;28;20034;-83
2021/03/27 13:19:30;;;;;;;0.40;0.30;;;17.90;23.00;;;;;;4947361;28;20126;-82
2021/03/27 13:21:56;;;;;;;1.20;0.20;;;;;;;;;;4945123;29;20034;-83
2021/03/27 13:24:34;;;;;;;0.80;0.75;;;17.90;22.80;;;;;;4945990;28;20401;-82
2021/03/27 13:27:21;;;;;;;5.03;0.50;;;18.10;23.50;;;;;;4945653;29;20023;-82
2021/03/27 13:29:50;;;;;;;1.55;0.60;;;18.00;22.50;;;;;;4944876;29;20036;-82
2021/03/27 13:32:16;;;;;;;2.40;0.73;;;;;;;;;;4946704;28;20123;-82
2021/03/27 13:35:03;;;;;;;0.68;0.60;;;18.20;24.70;;;;;;4943345;28;20043;-83
2021/03/27 13:37:29;;;;;;;0.90;0.63;;;;;;;;;;4946481;28;20046;-81
2021/03/27 13:40:10;;;;;;;3.38;0.50;;;18.00;39.50;;;;;;4944664;28;20023;-83
2021/03/27 13:43:06;;;;;;;0.52;0.32;;;17.90;23.10;;;;;;4947213;28;20041;-82
2021/03/27 13:45:39;;;;;;;1.20;0.90;;;17.70;21.40;;;;;;4948986;28;20074;-82
2021/03/27 13:48:29;;;;;;;2.25;0.70;;;17.80;41.30;;;;;;4944988;28;20106;-82
2021/03/27 13:51:09;;;;;;;2.65;0.57;;;17.60;23.00;;;;;;4938477;29;20077;-83
2021/03/27 13:53:42;;;;;;;1.85;0.50;;;;;;;;;;4943792;29;20035;-82
2021/03/27 13:56:43;;;;;;;0.93;0.38;;;17.80;22.90;;;;;;4939457;29;20023;-84
2021/03/27 13:59:57;;;;;;;0.95;0.50;;;17.70;24.30;;;;;;4942721;28;20086;-83
2021/03/27 14:02:26;;;;;;;0.68;0.60;;;;;;;;;;4942245;29;20070;-85
2021/03/27 14:05:18;;;;;;;1.60;1.50;;;18.10;22.70;;;;;;4937357;29;20031;-82
2021/03/27 14:08:08;;;;;;;1.30;0.82;;;17.90;23.00;;;;;;4931279;29;20047;-82
2021/03/27 14:10:53;;;;;;;4.07;0.88;;;17.80;22.40;;;;;;4932298;29;20039;-82
2021/03/27 14:13:22;;;;;;;0.77;0.50;;;17.90;24.00;;;;;;4919760;29;20103;-82
2021/03/27 14:16:20;;;;;;;0.50;0.30;;;17.60;22.90;;;;;;4920330;29;20102;-83
2021/03/27 14:19:00;;;;;;;5.35;0.73;;;17.50;23.70;;;;;;4927777;29;20463;-81
2021/03/27 14:21:49;;;;;;;2.63;1.10;;;17.60;24.60;;;;;;4926123;29;20024;-83
2021/03/27 14:24:29;;;;;;;6.50;0.80;;;17.20;23.20;;;;;;4935270;29;20067;-84
2021/03/27 14:27:14;;;;;;;1.25;1.05;;;;;;;;;;4927577;29;20039;-84
2021/03/27 14:30:06;;;;;;;0.80;0.60;;;17.00;25.00;;;;;;4901428;29;20517;-81
2021/03/27 14:32:45;;;;;;;1.80;0.68;;;;;;;;;;4927379;29;21597;-82
2021/03/27 14:35:34;;;;;;;0.63;0.40;;;16.80;23.80;;;;;;4917558;29;20825;-83
2021/03/27 14:38:06;;;;;;;0.38;0.35;;;;;;;;;;4869399;29;20037;-83
2021/03/27 14:40:44;;;;;;;1.30;1.20;;;16.70;24.40;;;;;;4885926;29;20581;-84